79.6°F
Current conditions from King Hill
Updated every 5 minutes
 
  Wednesday August 20, 2014

Station Historical Data
Daily Summary for February 27, 2012 Units:  Both    English   Metric
« Previous Day
Next Day »
Daily Weekly Monthly Yearly Custom
  High: Low: Average:
Temperature: 39.5 °F /  4.2 °C 5.7 °F /  -14.6 °C 24.6 °F /  -4.1 °C
Dew Point: 29.4 °F /  -1.4 °C -0.4 °F /  -18 °C 14.7 °F /  -9.6 °C
Humidity: 86% 53% 67%
Wind Speed: 11.0mph /  17.7km/h - 5.6mph /  9km/h
Wind Gust: 24.0mph /  38.6km/h - -
Wind- - SW
Pressure: 30.42 in /  1030 hPa 29.96 in /  1014.4 hPa -
Precipitation: 0.00 in /  0 mm    
Historical Graphs
 
 
Tabular Data for February 27, 2012
Time Temperature Dew Point Pressure Wind Wind Speed Wind Gust Humidity Daily Rainfall
00:05 9.7 °F /  -12.4 °C 1.6 °F /  -16.9 °C 30.42in /  1030hPa Calm     69% 0.00in /  0mm
00:09 9.9 °F /  -12.3 °C 2.1 °F /  -16.6 °C 30.42in /  1030hPa Calm     70% 0.00in /  0mm
00:14 9.9 °F /  -12.3 °C 1.8 °F /  -16.8 °C 30.42in /  1030hPa Calm     69% 0.00in /  0mm
00:19 9.9 °F /  -12.3 °C 2.1 °F /  -16.6 °C 30.42in /  1030hPa Calm     70% 0.00in /  0mm
00:25 9.6 °F /  -12.4 °C 1.5 °F /  -16.9 °C 30.42in /  1030hPa Calm     69% 0.00in /  0mm
00:30 9.2 °F /  -12.7 °C 1.1 °F /  -17.2 °C 30.42in /  1030hPa Calm     69% 0.00in /  0mm
00:34 8.8 °F /  -12.9 °C 0.7 °F /  -17.4 °C 30.42in /  1030hPa Calm     69% 0.00in /  0mm
00:40 8.6 °F /  -13 °C 0.8 °F /  -17.3 °C 30.41in /  1029.7hPa Calm     70% 0.00in /  0mm
00:45 8.3 °F /  -13.2 °C 0.5 °F /  -17.5 °C 30.42in /  1030hPa Calm     70% 0.00in /  0mm
00:50 7.8 °F /  -13.4 °C 0.1 °F /  -17.7 °C 30.42in /  1030hPa Calm     70% 0.00in /  0mm
00:54 7.5 °F /  -13.6 °C 0.1 °F /  -17.7 °C 30.42in /  1030hPa Calm     71% 0.00in /  0mm
00:59 7.5 °F /  -13.6 °C 0.1 °F /  -17.7 °C 30.41in /  1029.7hPa Calm     71% 0.00in /  0mm
01:05 7.7 °F /  -13.5 °C 0.9 °F /  -17.3 °C 30.41in /  1029.7hPa Calm     73% 0.00in /  0mm
01:09 7.9 °F /  -13.4 °C 1.0 °F /  -17.2 °C 30.40in /  1029.3hPa Calm     73% 0.00in /  0mm
01:14 8.1 °F /  -13.3 °C 1.2 °F /  -17.1 °C 30.40in /  1029.3hPa Calm     73% 0.00in /  0mm
01:19 7.8 °F /  -13.4 °C 0.7 °F /  -17.4 °C 30.39in /  1029hPa Calm     72% 0.00in /  0mm
01:25 7.3 °F /  -13.7 °C 0.2 °F /  -17.7 °C 30.39in /  1029hPa Calm     72% 0.00in /  0mm
01:30 6.9 °F /  -13.9 °C 0.1 °F /  -17.7 °C 30.40in /  1029.3hPa Calm   1.0mph /  1.6km/h 73% 0.00in /  0mm
01:34 6.6 °F /  -14.1 °C -0.2 °F /  -17.9 °C 30.41in /  1029.7hPa Calm   1.0mph /  1.6km/h 73% 0.00in /  0mm
01:39 6.8 °F /  -14 °C 0.6 °F /  -17.4 °C 30.41in /  1029.7hPa Calm     75% 0.00in /  0mm
01:44 7.1 °F /  -13.8 °C 0.8 °F /  -17.3 °C 30.41in /  1029.7hPa Calm     75% 0.00in /  0mm
01:50 7.4 °F /  -13.7 °C 1.1 °F /  -17.2 °C 30.41in /  1029.7hPa Calm     75% 0.00in /  0mm
01:55 7.5 °F /  -13.6 °C 1.2 °F /  -17.1 °C 30.40in /  1029.3hPa Calm     75% 0.00in /  0mm
01:59 7.4 °F /  -13.7 °C 0.9 °F /  -17.3 °C 30.40in /  1029.3hPa Calm     74% 0.00in /  0mm
02:04 7.3 °F /  -13.7 °C 1.0 °F /  -17.2 °C 30.40in /  1029.3hPa Calm     75% 0.00in /  0mm
02:10 7.3 °F /  -13.7 °C 1.0 °F /  -17.2 °C 30.40in /  1029.3hPa Calm     75% 0.00in /  0mm
02:14 7.5 °F /  -13.6 °C 1.2 °F /  -17.1 °C 30.40in /  1029.3hPa Calm     75% 0.00in /  0mm
02:19 7.6 °F /  -13.6 °C 1.3 °F /  -17.1 °C 30.41in /  1029.7hPa Calm     75% 0.00in /  0mm
02:25 7.5 °F /  -13.6 °C 1.2 °F /  -17.1 °C 30.40in /  1029.3hPa Calm     75% 0.00in /  0mm
02:29 7.3 °F /  -13.7 °C 1.0 °F /  -17.2 °C 30.40in /  1029.3hPa Calm     75% 0.00in /  0mm
02:34 7.2 °F /  -13.8 °C 0.9 °F /  -17.3 °C 30.39in /  1029hPa Calm     75% 0.00in /  0mm
02:40 7.2 °F /  -13.8 °C 1.2 °F /  -17.1 °C 30.39in /  1029hPa Calm   1.0mph /  1.6km/h 76% 0.00in /  0mm
02:50 6.8 °F /  -14 °C 0.6 °F /  -17.4 °C 30.39in /  1029hPa Calm     75% 0.00in /  0mm
02:55 6.4 °F /  -14.2 °C 0.5 °F /  -17.5 °C 30.39in /  1029hPa Calm     76% 0.00in /  0mm
02:59 6.3 °F /  -14.3 °C 0.4 °F /  -17.6 °C 30.39in /  1029hPa Calm     76% 0.00in /  0mm
03:05 6.5 °F /  -14.2 °C 0.8 °F /  -17.3 °C 30.39in /  1029hPa Calm     77% 0.00in /  0mm
03:09 6.7 °F /  -14.1 °C 1.0 °F /  -17.2 °C 30.39in /  1029hPa Calm     77% 0.00in /  0mm
03:15 7.2 °F /  -13.8 °C 1.5 °F /  -16.9 °C 30.39in /  1029hPa Calm     77% 0.00in /  0mm
03:19 7.5 °F /  -13.6 °C 1.8 °F /  -16.8 °C 30.40in /  1029.3hPa Calm     77% 0.00in /  0mm
03:25 8.1 °F /  -13.3 °C 2.1 °F /  -16.6 °C 30.40in /  1029.3hPa Calm     76% 0.00in /  0mm
03:29 8.2 °F /  -13.2 °C 1.9 °F /  -16.7 °C 30.40in /  1029.3hPa Calm     75% 0.00in /  0mm
03:34 8.3 °F /  -13.2 °C 2.0 °F /  -16.7 °C 30.40in /  1029.3hPa Calm     75% 0.00in /  0mm
03:40 8.2 °F /  -13.2 °C 1.6 °F /  -16.9 °C 30.40in /  1029.3hPa Calm     74% 0.00in /  0mm
03:44 8.2 °F /  -13.2 °C 1.6 °F /  -16.9 °C 30.39in /  1029hPa Calm     74% 0.00in /  0mm
03:50 8.2 °F /  -13.2 °C 1.6 °F /  -16.9 °C 30.39in /  1029hPa Calm   1.0mph /  1.6km/h 74% 0.00in /  0mm
04:00 8.0 °F /  -13.3 °C 1.4 °F /  -17 °C 30.39in /  1029hPa Calm     74% 0.00in /  0mm
04:05 8.0 °F /  -13.3 °C 1.4 °F /  -17 °C 30.39in /  1029hPa Calm     74% 0.00in /  0mm
04:09 8.0 °F /  -13.3 °C 1.4 °F /  -17 °C 30.39in /  1029hPa Calm     74% 0.00in /  0mm
04:14 7.9 °F /  -13.4 °C 1.3 °F /  -17.1 °C 30.38in /  1028.7hPa Calm     74% 0.00in /  0mm
04:19 7.7 °F /  -13.5 °C 1.1 °F /  -17.2 °C 30.38in /  1028.7hPa Calm     74% 0.00in /  0mm
04:25 7.6 °F /  -13.6 °C 1.0 °F /  -17.2 °C 30.38in /  1028.7hPa Calm     74% 0.00in /  0mm
04:29 7.5 °F /  -13.6 °C 0.9 °F /  -17.3 °C 30.39in /  1029hPa Calm     74% 0.00in /  0mm
04:35 7.6 °F /  -13.6 °C 1.3 °F /  -17.1 °C 30.38in /  1028.7hPa Calm     75% 0.00in /  0mm
04:44 7.7 °F /  -13.5 °C 1.4 °F /  -17 °C 30.38in /  1028.7hPa Calm     75% 0.00in /  0mm
04:49 7.7 °F /  -13.5 °C 1.4 °F /  -17 °C 30.38in /  1028.7hPa Calm     75% 0.00in /  0mm
04:55 7.8 °F /  -13.4 °C 1.5 °F /  -16.9 °C 30.38in /  1028.7hPa Calm     75% 0.00in /  0mm
04:59 7.9 °F /  -13.4 °C 1.6 °F /  -16.9 °C 30.38in /  1028.7hPa Calm     75% 0.00in /  0mm
05:04 8.0 °F /  -13.3 °C 2.0 °F /  -16.7 °C 30.38in /  1028.7hPa Calm     76% 0.00in /  0mm
05:09 8.3 °F /  -13.2 °C 2.3 °F /  -16.5 °C 30.37in /  1028.3hPa Calm     76% 0.00in /  0mm
05:14 8.5 °F /  -13.1 °C 2.5 °F /  -16.4 °C 30.37in /  1028.3hPa Calm     76% 0.00in /  0mm
05:19 8.5 °F /  -13.1 °C 2.5 °F /  -16.4 °C 30.37in /  1028.3hPa Calm     76% 0.00in /  0mm
05:24 8.6 °F /  -13 °C 2.3 °F /  -16.5 °C 30.37in /  1028.3hPa Calm     75% 0.00in /  0mm
05:29 8.6 °F /  -13 °C 2.3 °F /  -16.5 °C 30.36in /  1028hPa Calm     75% 0.00in /  0mm
05:34 8.6 °F /  -13 °C 2.3 °F /  -16.5 °C 30.36in /  1028hPa Calm     75% 0.00in /  0mm
05:40 8.5 °F /  -13.1 °C 1.9 °F /  -16.7 °C 30.36in /  1028hPa Calm     74% 0.00in /  0mm
05:44 8.2 °F /  -13.2 °C 1.6 °F /  -16.9 °C 30.35in /  1027.7hPa Calm     74% 0.00in /  0mm
05:50 8.0 °F /  -13.3 °C 1.4 °F /  -17 °C 30.35in /  1027.7hPa Calm     74% 0.00in /  0mm
05:54 7.5 °F /  -13.6 °C 0.9 °F /  -17.3 °C 30.34in /  1027.3hPa Calm     74% 0.00in /  0mm
05:59 6.9 °F /  -13.9 °C 0.4 °F /  -17.6 °C 30.34in /  1027.3hPa Calm     74% 0.00in /  0mm
06:04 6.4 °F /  -14.2 °C -0.1 °F /  -17.8 °C 30.34in /  1027.3hPa Calm     74% 0.00in /  0mm
06:10 5.8 °F /  -14.6 °C -0.4 °F /  -18 °C 30.34in /  1027.3hPa Calm     75% 0.00in /  0mm
06:14 5.7 °F /  -14.6 °C -0.2 °F /  -17.9 °C 30.34in /  1027.3hPa Calm     76% 0.00in /  0mm
06:19 5.8 °F /  -14.6 °C 0.1 °F /  -17.7 °C 30.34in /  1027.3hPa Calm     77% 0.00in /  0mm
06:24 5.8 °F /  -14.6 °C 0.1 °F /  -17.7 °C 30.33in /  1027hPa Calm     77% 0.00in /  0mm
06:29 6.2 °F /  -14.3 °C 0.8 °F /  -17.3 °C 30.33in /  1027hPa Calm     78% 0.00in /  0mm
06:34 6.5 °F /  -14.2 °C 0.8 °F /  -17.3 °C 30.33in /  1027hPa Calm     77% 0.00in /  0mm
06:39 6.5 °F /  -14.2 °C 0.8 °F /  -17.3 °C 30.33in /  1027hPa Calm   2.0mph /  3.2km/h 77% 0.00in /  0mm
06:44 6.3 °F /  -14.3 °C 0.6 °F /  -17.4 °C 30.33in /  1027hPa Calm   2.0mph /  3.2km/h 77% 0.00in /  0mm
06:50 6.2 °F /  -14.3 °C 0.5 °F /  -17.5 °C 30.33in /  1027hPa Calm     77% 0.00in /  0mm
06:54 6.1 °F /  -14.4 °C 0.4 °F /  -17.6 °C 30.33in /  1027hPa Calm     77% 0.00in /  0mm
06:59 6.0 °F /  -14.4 °C 0.3 °F /  -17.6 °C 30.33in /  1027hPa Calm   1.0mph /  1.6km/h 77% 0.00in /  0mm
07:04 6.1 °F /  -14.4 °C 0.4 °F /  -17.6 °C 30.33in /  1027hPa Calm   1.0mph /  1.6km/h 77% 0.00in /  0mm
07:09 6.3 °F /  -14.3 °C 0.6 °F /  -17.4 °C 30.33in /  1027hPa Calm   1.0mph /  1.6km/h 77% 0.00in /  0mm
07:14 6.6 °F /  -14.1 °C 0.9 °F /  -17.3 °C 30.33in /  1027hPa Calm   1.0mph /  1.6km/h 77% 0.00in /  0mm
07:19 7.3 °F /  -13.7 °C 1.3 °F /  -17.1 °C 30.33in /  1027hPa ENE 1.0mph /  1.6km/h 3.0mph /  4.8km/h 76% 0.00in /  0mm
07:24 7.9 °F /  -13.4 °C 1.6 °F /  -16.9 °C 30.33in /  1027hPa Calm   3.0mph /  4.8km/h 75% 0.00in /  0mm
07:30 8.2 °F /  -13.2 °C 1.6 °F /  -16.9 °C 30.33in /  1027hPa Calm   1.0mph /  1.6km/h 74% 0.00in /  0mm
07:35 8.4 °F /  -13.1 °C 1.8 °F /  -16.8 °C 30.33in /  1027hPa Calm     74% 0.00in /  0mm
07:40 8.6 °F /  -13 °C 2.0 °F /  -16.7 °C 30.32in /  1026.6hPa Calm     74% 0.00in /  0mm
07:50 9.2 °F /  -12.7 °C 2.3 °F /  -16.5 °C 30.32in /  1026.6hPa Calm     73% 0.00in /  0mm
07:54 9.7 °F /  -12.4 °C 2.8 °F /  -16.2 °C 30.31in /  1026.3hPa Calm     73% 0.00in /  0mm
07:59 10.4 °F /  -12 °C 3.5 °F /  -15.8 °C 30.31in /  1026.3hPa Calm     73% 0.00in /  0mm
08:04 11.1 °F /  -11.6 °C 4.1 °F /  -15.5 °C 30.31in /  1026.3hPa Calm     73% 0.00in /  0mm
08:09 11.7 °F /  -11.3 °C 4.4 °F /  -15.3 °C 30.30in /  1026hPa Calm     72% 0.00in /  0mm
08:14 12.2 °F /  -11 °C 4.6 °F /  -15.2 °C 30.30in /  1026hPa Calm     71% 0.00in /  0mm
08:19 12.7 °F /  -10.7 °C 4.8 °F /  -15.1 °C 30.29in /  1025.6hPa Calm     70% 0.00in /  0mm
08:24 13.0 °F /  -10.6 °C 4.7 °F /  -15.2 °C 30.29in /  1025.6hPa Calm   1.0mph /  1.6km/h 69% 0.00in /  0mm
08:29 13.7 °F /  -10.2 °C 5.4 °F /  -14.8 °C 30.28in /  1025.3hPa Calm   1.0mph /  1.6km/h 69% 0.00in /  0mm
08:34 14.9 °F /  -9.5 °C 6.6 °F /  -14.1 °C 30.28in /  1025.3hPa Calm   1.0mph /  1.6km/h 69% 0.00in /  0mm
08:39 16.5 °F /  -8.6 °C 7.8 °F /  -13.4 °C 30.27in /  1024.9hPa Calm   1.0mph /  1.6km/h 68% 0.00in /  0mm
08:44 18.2 °F /  -7.7 °C 8.7 °F /  -12.9 °C 30.27in /  1024.9hPa Calm   1.0mph /  1.6km/h 66% 0.00in /  0mm
08:49 19.7 °F /  -6.8 °C 9.8 °F /  -12.3 °C 30.27in /  1024.9hPa SW 2.0mph /  3.2km/h 7.0mph /  11.3km/h 65% 0.00in /  0mm
08:54 21.7 °F /  -5.7 °C 11.0 °F /  -11.7 °C 30.26in /  1024.6hPa South 1.0mph /  1.6km/h 7.0mph /  11.3km/h 63% 0.00in /  0mm
08:59 23.8 °F /  -4.6 °C 11.6 °F /  -11.3 °C 30.25in /  1024.3hPa SSW 2.0mph /  3.2km/h 8.0mph /  12.9km/h 59% 0.00in /  0mm
09:04 24.5 °F /  -4.2 °C 11.8 °F /  -11.2 °C 30.25in /  1024.3hPa SSW 2.0mph /  3.2km/h 8.0mph /  12.9km/h 58% 0.00in /  0mm
09:09 25.0 °F /  -3.9 °C 11.9 °F /  -11.2 °C 30.24in /  1023.9hPa South 2.0mph /  3.2km/h 8.0mph /  12.9km/h 57% 0.00in /  0mm
09:14 25.4 °F /  -3.7 °C 11.9 °F /  -11.2 °C 30.24in /  1023.9hPa South 5.0mph /  8km/h 10.0mph /  16.1km/h 56% 0.00in /  0mm
09:19 25.5 °F /  -3.6 °C 12.0 °F /  -11.1 °C 30.23in /  1023.6hPa SSW 3.0mph /  4.8km/h 10.0mph /  16.1km/h 56% 0.00in /  0mm
09:24 25.5 °F /  -3.6 °C 12.0 °F /  -11.1 °C 30.23in /  1023.6hPa SSW 2.0mph /  3.2km/h 7.0mph /  11.3km/h 56% 0.00in /  0mm
09:30 25.4 °F /  -3.7 °C 12.3 °F /  -10.9 °C 30.23in /  1023.6hPa SSW 3.0mph /  4.8km/h 7.0mph /  11.3km/h 57% 0.00in /  0mm
09:34 25.6 °F /  -3.6 °C 12.5 °F /  -10.8 °C 30.23in /  1023.6hPa SSW 4.0mph /  6.4km/h 9.0mph /  14.5km/h 57% 0.00in /  0mm
09:40 25.4 °F /  -3.7 °C 11.9 °F /  -11.2 °C 30.23in /  1023.6hPa SSW 6.0mph /  9.7km/h 11.0mph /  17.7km/h 56% 0.00in /  0mm
09:44 25.4 °F /  -3.7 °C 12.3 °F /  -10.9 °C 30.23in /  1023.6hPa SSW 4.0mph /  6.4km/h 11.0mph /  17.7km/h 57% 0.00in /  0mm
09:49 25.7 °F /  -3.5 °C 12.6 °F /  -10.8 °C 30.22in /  1023.2hPa SW 4.0mph /  6.4km/h 10.0mph /  16.1km/h 57% 0.00in /  0mm
09:54 25.8 °F /  -3.4 °C 12.7 °F /  -10.7 °C 30.22in /  1023.2hPa SW 6.0mph /  9.7km/h 13.0mph /  20.9km/h 57% 0.00in /  0mm
09:59 26.1 °F /  -3.3 °C 12.9 °F /  -10.6 °C 30.22in /  1023.2hPa SSW 5.0mph /  8km/h 13.0mph /  20.9km/h 57% 0.00in /  0mm
10:04 26.1 °F /  -3.3 °C 12.9 °F /  -10.6 °C 30.22in /  1023.2hPa SSW 5.0mph /  8km/h 13.0mph /  20.9km/h 57% 0.00in /  0mm
10:09 26.2 °F /  -3.2 °C 13.0 °F /  -10.6 °C 30.20in /  1022.6hPa South 3.0mph /  4.8km/h 13.0mph /  20.9km/h 57% 0.00in /  0mm
10:14 26.4 °F /  -3.1 °C 13.2 °F /  -10.4 °C 30.20in /  1022.6hPa SSW 3.0mph /  4.8km/h 11.0mph /  17.7km/h 57% 0.00in /  0mm
10:19 26.7 °F /  -2.9 °C 13.5 °F /  -10.3 °C 30.19in /  1022.2hPa SW 4.0mph /  6.4km/h 8.0mph /  12.9km/h 57% 0.00in /  0mm
10:24 27.1 °F /  -2.7 °C 13.9 °F /  -10.1 °C 30.19in /  1022.2hPa SSW 2.0mph /  3.2km/h 9.0mph /  14.5km/h 57% 0.00in /  0mm
10:29 27.5 °F /  -2.5 °C 13.9 °F /  -10.1 °C 30.18in /  1021.9hPa SSW 5.0mph /  8km/h 10.0mph /  16.1km/h 56% 0.00in /  0mm
10:34 27.8 °F /  -2.3 °C 14.1 °F /  -9.9 °C 30.18in /  1021.9hPa SSW 2.0mph /  3.2km/h 10.0mph /  16.1km/h 56% 0.00in /  0mm
10:39 28.0 °F /  -2.2 °C 14.3 °F /  -9.8 °C 30.17in /  1021.6hPa SSW 2.0mph /  3.2km/h 7.0mph /  11.3km/h 56% 0.00in /  0mm
10:44 28.2 °F /  -2.1 °C 14.9 °F /  -9.5 °C 30.17in /  1021.6hPa SSW 5.0mph /  8km/h 8.0mph /  12.9km/h 57% 0.00in /  0mm
10:49 28.6 °F /  -1.9 °C 14.9 °F /  -9.5 °C 30.17in /  1021.6hPa SW 3.0mph /  4.8km/h 8.0mph /  12.9km/h 56% 0.00in /  0mm
10:54 29.0 °F /  -1.7 °C 15.3 °F /  -9.3 °C 30.16in /  1021.2hPa South 6.0mph /  9.7km/h 11.0mph /  17.7km/h 56% 0.00in /  0mm
10:59 29.4 °F /  -1.4 °C 16.0 °F /  -8.9 °C 30.16in /  1021.2hPa SSW 4.0mph /  6.4km/h 11.0mph /  17.7km/h 57% 0.00in /  0mm
11:04 29.7 °F /  -1.3 °C 15.9 °F /  -8.9 °C 30.16in /  1021.2hPa SSW 4.0mph /  6.4km/h 11.0mph /  17.7km/h 56% 0.00in /  0mm
11:09 29.9 °F /  -1.2 °C 16.1 °F /  -8.8 °C 30.16in /  1021.2hPa SSW 6.0mph /  9.7km/h 16.0mph /  25.7km/h 56% 0.00in /  0mm
11:14 30.3 °F /  -0.9 °C 16.5 °F /  -8.6 °C 30.15in /  1020.9hPa SSW 4.0mph /  6.4km/h 18.0mph /  29km/h 56% 0.00in /  0mm
11:19 30.6 °F /  -0.8 °C 16.3 °F /  -8.7 °C 30.14in /  1020.5hPa SSW 7.0mph /  11.3km/h 18.0mph /  29km/h 55% 0.00in /  0mm
11:24 30.6 °F /  -0.8 °C 16.8 °F /  -8.4 °C 30.14in /  1020.5hPa South 8.0mph /  12.9km/h 17.0mph /  27.4km/h 56% 0.00in /  0mm
11:30 30.6 °F /  -0.8 °C 16.8 °F /  -8.4 °C 30.14in /  1020.5hPa South 6.0mph /  9.7km/h 17.0mph /  27.4km/h 56% 0.00in /  0mm
11:35 30.6 °F /  -0.8 °C 16.3 °F /  -8.7 °C 30.13in /  1020.2hPa South 7.0mph /  11.3km/h 16.0mph /  25.7km/h 55% 0.00in /  0mm
11:39 30.6 °F /  -0.8 °C 16.8 °F /  -8.4 °C 30.12in /  1019.9hPa SSW 4.0mph /  6.4km/h 16.0mph /  25.7km/h 56% 0.00in /  0mm
11:45 30.9 °F /  -0.6 °C 16.6 °F /  -8.6 °C 30.12in /  1019.9hPa SSW 5.0mph /  8km/h 14.0mph /  22.5km/h 55% 0.00in /  0mm
11:54 31.4 °F /  -0.3 °C 17.5 °F /  -8.1 °C 30.11in /  1019.5hPa SSW 7.0mph /  11.3km/h 14.0mph /  22.5km/h 56% 0.00in /  0mm
11:59 31.6 °F /  -0.2 °C 17.7 °F /  -7.9 °C 30.10in /  1019.2hPa SW 5.0mph /  8km/h 17.0mph /  27.4km/h 56% 0.00in /  0mm
12:04 31.8 °F /  -0.1 °C 17.9 °F /  -7.8 °C 30.09in /  1018.8hPa SSW 6.0mph /  9.7km/h 17.0mph /  27.4km/h 56% 0.00in /  0mm
12:09 31.9 °F /  -0.1 °C 17.6 °F /  -8 °C 30.09in /  1018.8hPa SSW 8.0mph /  12.9km/h 18.0mph /  29km/h 55% 0.00in /  0mm
12:14 32.0 °F /  0 °C 17.7 °F /  -7.9 °C 30.09in /  1018.8hPa SSW 9.0mph /  14.5km/h 18.0mph /  29km/h 55% 0.00in /  0mm
12:20 32.3 °F /  0.2 °C 18.4 °F /  -7.6 °C 30.08in /  1018.5hPa SSW 8.0mph /  12.9km/h 21.0mph /  33.8km/h 56% 0.00in /  0mm
12:24 32.4 °F /  0.2 °C 18.0 °F /  -7.8 °C 30.07in /  1018.2hPa SSW 9.0mph /  14.5km/h 21.0mph /  33.8km/h 55% 0.00in /  0mm
12:29 32.6 °F /  0.3 °C 18.2 °F /  -7.7 °C 30.07in /  1018.2hPa SSW 9.0mph /  14.5km/h 24.0mph /  38.6km/h 55% 0.00in /  0mm
12:34 32.8 °F /  0.4 °C 18.8 °F /  -7.3 °C 30.07in /  1018.2hPa SSW 7.0mph /  11.3km/h 24.0mph /  38.6km/h 56% 0.00in /  0mm
12:40 33.0 °F /  0.6 °C 19.0 °F /  -7.2 °C 30.06in /  1017.8hPa SSW 9.0mph /  14.5km/h 18.0mph /  29km/h 56% 0.00in /  0mm
12:49 33.5 °F /  0.8 °C 19.5 °F /  -6.9 °C 30.05in /  1017.5hPa SSW 9.0mph /  14.5km/h 18.0mph /  29km/h 56% 0.00in /  0mm
12:54 33.7 °F /  0.9 °C 19.2 °F /  -7.1 °C 30.04in /  1017.2hPa SSW 8.0mph /  12.9km/h 16.0mph /  25.7km/h 55% 0.00in /  0mm
12:59 34.1 °F /  1.2 °C 19.6 °F /  -6.9 °C 30.04in /  1017.2hPa SSW 8.0mph /  12.9km/h 16.0mph /  25.7km/h 55% 0.00in /  0mm
13:04 34.4 °F /  1.3 °C 20.3 °F /  -6.5 °C 30.04in /  1017.2hPa SSW 10.0mph /  16.1km/h 22.0mph /  35.4km/h 56% 0.00in /  0mm
13:09 34.9 °F /  1.6 °C 20.4 °F /  -6.4 °C 30.04in /  1017.2hPa SSW 10.0mph /  16.1km/h 22.0mph /  35.4km/h 55% 0.00in /  0mm
13:14 35.4 °F /  1.9 °C 20.4 °F /  -6.4 °C 30.04in /  1017.2hPa South 8.0mph /  12.9km/h 21.0mph /  33.8km/h 54% 0.00in /  0mm
13:19 35.7 °F /  2.1 °C 20.2 °F /  -6.6 °C 30.03in /  1016.8hPa South 8.0mph /  12.9km/h 21.0mph /  33.8km/h 53% 0.00in /  0mm
13:24 35.9 °F /  2.2 °C 20.9 °F /  -6.2 °C 30.03in /  1016.8hPa SSW 6.0mph /  9.7km/h 21.0mph /  33.8km/h 54% 0.00in /  0mm
13:29 35.9 °F /  2.2 °C 20.4 °F /  -6.4 °C 30.03in /  1016.8hPa SSW 11.0mph /  17.7km/h 18.0mph /  29km/h 53% 0.00in /  0mm
13:34 35.7 °F /  2.1 °C 20.7 °F /  -6.3 °C 30.02in /  1016.5hPa SSW 8.0mph /  12.9km/h 21.0mph /  33.8km/h 54% 0.00in /  0mm
13:40 35.6 °F /  2 °C 21.0 °F /  -6.1 °C 30.02in /  1016.5hPa SSW 7.0mph /  11.3km/h 21.0mph /  33.8km/h 55% 0.00in /  0mm
13:44 35.5 °F /  1.9 °C 20.5 °F /  -6.4 °C 30.02in /  1016.5hPa SSW 8.0mph /  12.9km/h 18.0mph /  29km/h 54% 0.00in /  0mm
13:49 35.5 °F /  1.9 °C 20.9 °F /  -6.2 °C 30.01in /  1016.1hPa SSW 9.0mph /  14.5km/h 18.0mph /  29km/h 55% 0.00in /  0mm
13:54 35.5 °F /  1.9 °C 20.5 °F /  -6.4 °C 30.00in /  1015.8hPa SSW 9.0mph /  14.5km/h 20.0mph /  32.2km/h 54% 0.00in /  0mm
13:59 35.7 °F /  2.1 °C 20.7 °F /  -6.3 °C 30.00in /  1015.8hPa SSW 10.0mph /  16.1km/h 22.0mph /  35.4km/h 54% 0.00in /  0mm
14:04 35.9 °F /  2.2 °C 21.3 °F /  -5.9 °C 30.00in /  1015.8hPa SSW 10.0mph /  16.1km/h 22.0mph /  35.4km/h 55% 0.00in /  0mm
14:09 36.0 °F /  2.2 °C 21.4 °F /  -5.9 °C 30.00in /  1015.8hPa SSW 7.0mph /  11.3km/h 19.0mph /  30.6km/h 55% 0.00in /  0mm
14:14 36.1 °F /  2.3 °C 21.1 °F /  -6.1 °C 30.00in /  1015.8hPa SSW 7.0mph /  11.3km/h 19.0mph /  30.6km/h 54% 0.00in /  0mm
14:19 36.2 °F /  2.3 °C 21.2 °F /  -6 °C 30.00in /  1015.8hPa SSW 8.0mph /  12.9km/h 17.0mph /  27.4km/h 54% 0.00in /  0mm
14:24 36.4 °F /  2.4 °C 21.3 °F /  -5.9 °C 30.00in /  1015.8hPa SSW 8.0mph /  12.9km/h 18.0mph /  29km/h 54% 0.00in /  0mm
14:30 36.6 °F /  2.6 °C 21.5 °F /  -5.8 °C 29.99in /  1015.5hPa SSW 8.0mph /  12.9km/h 18.0mph /  29km/h 54% 0.00in /  0mm
14:39 36.7 °F /  2.6 °C 21.6 °F /  -5.8 °C 30.00in /  1015.8hPa SSW 7.0mph /  11.3km/h 22.0mph /  35.4km/h 54% 0.00in /  0mm
14:44 36.8 °F /  2.7 °C 21.3 °F /  -5.9 °C 29.99in /  1015.5hPa SSW 8.0mph /  12.9km/h 22.0mph /  35.4km/h 53% 0.00in /  0mm
14:49 36.8 °F /  2.7 °C 21.7 °F /  -5.7 °C 30.00in /  1015.8hPa SW 9.0mph /  14.5km/h 17.0mph /  27.4km/h 54% 0.00in /  0mm
14:54 36.9 °F /  2.7 °C 21.4 °F /  -5.9 °C 29.99in /  1015.5hPa SSW 9.0mph /  14.5km/h 16.0mph /  25.7km/h 53% 0.00in /  0mm
14:59 37.0 °F /  2.8 °C 21.5 °F /  -5.8 °C 29.99in /  1015.5hPa SSW 7.0mph /  11.3km/h 16.0mph /  25.7km/h 53% 0.00in /  0mm
15:04 36.9 °F /  2.7 °C 21.4 °F /  -5.9 °C 29.99in /  1015.5hPa SSW 8.0mph /  12.9km/h 19.0mph /  30.6km/h 53% 0.00in /  0mm
15:09 36.9 °F /  2.7 °C 21.4 °F /  -5.9 °C 29.98in /  1015.1hPa SSW 9.0mph /  14.5km/h 19.0mph /  30.6km/h 53% 0.00in /  0mm
15:14 36.7 °F /  2.6 °C 21.2 °F /  -6 °C 29.99in /  1015.5hPa SW 9.0mph /  14.5km/h 16.0mph /  25.7km/h 53% 0.00in /  0mm
15:19 36.6 °F /  2.6 °C 21.5 °F /  -5.8 °C 29.99in /  1015.5hPa SW 7.0mph /  11.3km/h 16.0mph /  25.7km/h 54% 0.00in /  0mm
15:24 36.5 °F /  2.5 °C 21.4 °F /  -5.9 °C 29.98in /  1015.1hPa SSW 9.0mph /  14.5km/h 18.0mph /  29km/h 54% 0.00in /  0mm
15:29 36.6 °F /  2.6 °C 21.5 °F /  -5.8 °C 29.99in /  1015.5hPa SW 7.0mph /  11.3km/h 18.0mph /  29km/h 54% 0.00in /  0mm
15:34 36.5 °F /  2.5 °C 21.9 °F /  -5.6 °C 29.99in /  1015.5hPa SW 5.0mph /  8km/h 16.0mph /  25.7km/h 55% 0.00in /  0mm
15:39 36.5 °F /  2.5 °C 21.4 °F /  -5.9 °C 29.99in /  1015.5hPa SW 10.0mph /  16.1km/h 15.0mph /  24.1km/h 54% 0.00in /  0mm
15:44 36.5 °F /  2.5 °C 21.9 °F /  -5.6 °C 30.00in /  1015.8hPa SW 4.0mph /  6.4km/h 15.0mph /  24.1km/h 55% 0.00in /  0mm
15:49 36.5 °F /  2.5 °C 22.3 °F /  -5.4 °C 30.00in /  1015.8hPa SW 6.0mph /  9.7km/h 11.0mph /  17.7km/h 56% 0.00in /  0mm
15:54 36.6 °F /  2.6 °C 22.0 °F /  -5.6 °C 29.99in /  1015.5hPa SSW 9.0mph /  14.5km/h 15.0mph /  24.1km/h 55% 0.00in /  0mm
15:59 36.8 °F /  2.7 °C 22.1 °F /  -5.5 °C 29.99in /  1015.5hPa SSW 6.0mph /  9.7km/h 18.0mph /  29km/h 55% 0.00in /  0mm
16:04 36.9 °F /  2.7 °C 22.2 °F /  -5.4 °C 29.98in /  1015.1hPa South 5.0mph /  8km/h 18.0mph /  29km/h 55% 0.00in /  0mm
16:09 36.8 °F /  2.7 °C 22.1 °F /  -5.5 °C 29.98in /  1015.1hPa SSW 7.0mph /  11.3km/h 16.0mph /  25.7km/h 55% 0.00in /  0mm
16:14 36.9 °F /  2.7 °C 22.7 °F /  -5.2 °C 29.98in /  1015.1hPa SSW 5.0mph /  8km/h 15.0mph /  24.1km/h 56% 0.00in /  0mm
16:19 37.0 °F /  2.8 °C 22.3 °F /  -5.4 °C 29.98in /  1015.1hPa South 5.0mph /  8km/h 15.0mph /  24.1km/h 55% 0.00in /  0mm
16:24 37.2 °F /  2.9 °C 22.1 °F /  -5.5 °C 29.98in /  1015.1hPa SSW 6.0mph /  9.7km/h 12.0mph /  19.3km/h 54% 0.00in /  0mm
16:29 37.1 °F /  2.8 °C 22.4 °F /  -5.3 °C 29.98in /  1015.1hPa SSW 6.0mph /  9.7km/h 12.0mph /  19.3km/h 55% 0.00in /  0mm
16:35 37.0 °F /  2.8 °C 22.8 °F /  -5.1 °C 29.97in /  1014.8hPa South 4.0mph /  6.4km/h 12.0mph /  19.3km/h 56% 0.00in /  0mm
16:44 37.0 °F /  2.8 °C 22.8 °F /  -5.1 °C 29.98in /  1015.1hPa SSW 4.0mph /  6.4km/h 13.0mph /  20.9km/h 56% 0.00in /  0mm
16:49 37.0 °F /  2.8 °C 22.8 °F /  -5.1 °C 29.98in /  1015.1hPa SW 6.0mph /  9.7km/h 13.0mph /  20.9km/h 56% 0.00in /  0mm
16:54 36.9 °F /  2.7 °C 23.1 °F /  -4.9 °C 29.98in /  1015.1hPa SSW 4.0mph /  6.4km/h 12.0mph /  19.3km/h 57% 0.00in /  0mm
16:59 37.1 °F /  2.8 °C 23.3 °F /  -4.8 °C 29.98in /  1015.1hPa SSW 6.0mph /  9.7km/h 12.0mph /  19.3km/h 57% 0.00in /  0mm
17:04 37.2 °F /  2.9 °C 23.4 °F /  -4.8 °C 29.98in /  1015.1hPa SSW 5.0mph /  8km/h 12.0mph /  19.3km/h 57% 0.00in /  0mm
17:09 37.4 °F /  3 °C 23.6 °F /  -4.7 °C 29.97in /  1014.8hPa SSW 6.0mph /  9.7km/h 12.0mph /  19.3km/h 57% 0.00in /  0mm
17:14 37.4 °F /  3 °C 23.1 °F /  -4.9 °C 29.97in /  1014.8hPa South 6.0mph /  9.7km/h 15.0mph /  24.1km/h 56% 0.00in /  0mm
17:19 37.2 °F /  2.9 °C 22.9 °F /  -5.1 °C 29.97in /  1014.8hPa SSW 5.0mph /  8km/h 15.0mph /  24.1km/h 56% 0.00in /  0mm
17:24 37.1 °F /  2.8 °C 23.3 °F /  -4.8 °C 29.97in /  1014.8hPa SSW 6.0mph /  9.7km/h 14.0mph /  22.5km/h 57% 0.00in /  0mm
17:29 37.2 °F /  2.9 °C 23.8 °F /  -4.6 °C 29.97in /  1014.8hPa SSW 5.0mph /  8km/h 14.0mph /  22.5km/h 58% 0.00in /  0mm
17:34 37.3 °F /  2.9 °C 23.9 °F /  -4.5 °C 29.98in /  1015.1hPa SW 7.0mph /  11.3km/h 12.0mph /  19.3km/h 58% 0.00in /  0mm
17:39 37.7 °F /  3.2 °C 24.3 °F /  -4.3 °C 29.98in /  1015.1hPa SW 9.0mph /  14.5km/h 13.0mph /  20.9km/h 58% 0.00in /  0mm
17:44 37.8 °F /  3.2 °C 24.3 °F /  -4.3 °C 29.98in /  1015.1hPa SSW 5.0mph /  8km/h 13.0mph /  20.9km/h 58% 0.00in /  0mm
17:49 37.8 °F /  3.2 °C 23.9 °F /  -4.5 °C 29.97in /  1014.8hPa SSW 4.0mph /  6.4km/h 14.0mph /  22.5km/h 57% 0.00in /  0mm
17:54 37.9 °F /  3.3 °C 24.4 °F /  -4.2 °C 29.97in /  1014.8hPa SSW 8.0mph /  12.9km/h 15.0mph /  24.1km/h 58% 0.00in /  0mm
17:59 37.9 °F /  3.3 °C 24.4 °F /  -4.2 °C 29.97in /  1014.8hPa SSW 5.0mph /  8km/h 15.0mph /  24.1km/h 58% 0.00in /  0mm
18:04 38.0 °F /  3.3 °C 24.1 °F /  -4.4 °C 29.96in /  1014.4hPa SSW 7.0mph /  11.3km/h 15.0mph /  24.1km/h 57% 0.00in /  0mm
18:09 38.1 °F /  3.4 °C 24.2 °F /  -4.3 °C 29.96in /  1014.4hPa SSW 3.0mph /  4.8km/h 15.0mph /  24.1km/h 57% 0.00in /  0mm
18:14 37.9 °F /  3.3 °C 24.0 °F /  -4.4 °C 29.97in /  1014.8hPa SSW 5.0mph /  8km/h 15.0mph /  24.1km/h 57% 0.00in /  0mm
18:19 37.6 °F /  3.1 °C 23.7 °F /  -4.6 °C 29.98in /  1015.1hPa SSW 5.0mph /  8km/h 14.0mph /  22.5km/h 57% 0.00in /  0mm
18:25 37.6 °F /  3.1 °C 24.2 °F /  -4.3 °C 29.98in /  1015.1hPa SSW 6.0mph /  9.7km/h 10.0mph /  16.1km/h 58% 0.00in /  0mm
18:34 38.0 °F /  3.3 °C 24.9 °F /  -3.9 °C 29.98in /  1015.1hPa SSW 5.0mph /  8km/h 13.0mph /  20.9km/h 59% 0.00in /  0mm
18:39 38.0 °F /  3.3 °C 24.9 °F /  -3.9 °C 29.98in /  1015.1hPa SW 6.0mph /  9.7km/h 12.0mph /  19.3km/h 59% 0.00in /  0mm
18:44 38.0 °F /  3.3 °C 24.9 °F /  -3.9 °C 29.98in /  1015.1hPa SW 4.0mph /  6.4km/h 11.0mph /  17.7km/h 59% 0.00in /  0mm
18:49 38.1 °F /  3.4 °C 25.0 °F /  -3.9 °C 29.97in /  1014.8hPa SSW 5.0mph /  8km/h 11.0mph /  17.7km/h 59% 0.00in /  0mm
18:54 38.2 °F /  3.4 °C 25.1 °F /  -3.8 °C 29.98in /  1015.1hPa SSW 6.0mph /  9.7km/h 12.0mph /  19.3km/h 59% 0.00in /  0mm
18:59 38.3 °F /  3.5 °C 25.2 °F /  -3.8 °C 29.97in /  1014.8hPa SSW 6.0mph /  9.7km/h 12.0mph /  19.3km/h 59% 0.00in /  0mm
19:04 38.4 °F /  3.6 °C 25.3 °F /  -3.7 °C 29.97in /  1014.8hPa SSW 5.0mph /  8km/h 11.0mph /  17.7km/h 59% 0.00in /  0mm
19:09 38.5 °F /  3.6 °C 25.8 °F /  -3.4 °C 29.97in /  1014.8hPa SSW 4.0mph /  6.4km/h 11.0mph /  17.7km/h 60% 0.00in /  0mm
19:14 38.8 °F /  3.8 °C 26.1 °F /  -3.3 °C 29.98in /  1015.1hPa SW 7.0mph /  11.3km/h 15.0mph /  24.1km/h 60% 0.00in /  0mm
19:19 38.8 °F /  3.8 °C 26.1 °F /  -3.3 °C 29.98in /  1015.1hPa WSW 5.0mph /  8km/h 15.0mph /  24.1km/h 60% 0.00in /  0mm
19:24 38.9 °F /  3.8 °C 26.2 °F /  -3.2 °C 29.98in /  1015.1hPa WSW 5.0mph /  8km/h 11.0mph /  17.7km/h 60% 0.00in /  0mm
19:29 39.0 °F /  3.9 °C 26.7 °F /  -2.9 °C 29.98in /  1015.1hPa SW 3.0mph /  4.8km/h 11.0mph /  17.7km/h 61% 0.00in /  0mm
19:34 38.9 °F /  3.8 °C 26.6 °F /  -3 °C 29.98in /  1015.1hPa SSW 4.0mph /  6.4km/h 8.0mph /  12.9km/h 61% 0.00in /  0mm
19:39 39.2 °F /  4 °C 26.5 °F /  -3.1 °C 29.98in /  1015.1hPa SW 5.0mph /  8km/h 9.0mph /  14.5km/h 60% 0.00in /  0mm
19:44 39.3 °F /  4.1 °C 26.6 °F /  -3 °C 29.98in /  1015.1hPa SW 4.0mph /  6.4km/h 10.0mph /  16.1km/h 60% 0.00in /  0mm
19:49 39.5 °F /  4.2 °C 26.8 °F /  -2.9 °C 29.98in /  1015.1hPa WSW 7.0mph /  11.3km/h 10.0mph /  16.1km/h 60% 0.00in /  0mm
19:54 39.5 °F /  4.2 °C 26.8 °F /  -2.9 °C 29.98in /  1015.1hPa SW 5.0mph /  8km/h 14.0mph /  22.5km/h 60% 0.00in /  0mm
19:59 39.5 °F /  4.2 °C 26.8 °F /  -2.9 °C 29.98in /  1015.1hPa SW 6.0mph /  9.7km/h 14.0mph /  22.5km/h 60% 0.00in /  0mm
20:04 39.3 °F /  4.1 °C 26.6 °F /  -3 °C 29.99in /  1015.5hPa SW 5.0mph /  8km/h 13.0mph /  20.9km/h 60% 0.00in /  0mm
20:09 39.4 °F /  4.1 °C 27.1 °F /  -2.7 °C 29.99in /  1015.5hPa WSW 7.0mph /  11.3km/h 13.0mph /  20.9km/h 61% 0.00in /  0mm
20:14 39.3 °F /  4.1 °C 27.0 °F /  -2.8 °C 29.99in /  1015.5hPa SW 6.0mph /  9.7km/h 13.0mph /  20.9km/h 61% 0.00in /  0mm
20:19 39.3 °F /  4.1 °C 27.0 °F /  -2.8 °C 30.00in /  1015.8hPa WSW 7.0mph /  11.3km/h 15.0mph /  24.1km/h 61% 0.00in /  0mm
20:24 39.2 °F /  4 °C 27.3 °F /  -2.6 °C 30.00in /  1015.8hPa SW 8.0mph /  12.9km/h 16.0mph /  25.7km/h 62% 0.00in /  0mm
20:29 39.2 °F /  4 °C 27.7 °F /  -2.4 °C 30.00in /  1015.8hPa SW 5.0mph /  8km/h 16.0mph /  25.7km/h 63% 0.00in /  0mm
20:34 38.8 °F /  3.8 °C 27.3 °F /  -2.6 °C 30.00in /  1015.8hPa SW 4.0mph /  6.4km/h 15.0mph /  24.1km/h 63% 0.00in /  0mm
20:39 38.5 °F /  3.6 °C 28.1 °F /  -2.2 °C 30.00in /  1015.8hPa SW 6.0mph /  9.7km/h 12.0mph /  19.3km/h 66% 0.00in /  0mm
20:44 38.3 °F /  3.5 °C 28.7 °F /  -1.8 °C 30.01in /  1016.1hPa West 8.0mph /  12.9km/h 14.0mph /  22.5km/h 68% 0.00in /  0mm
20:49 37.6 °F /  3.1 °C 29.4 °F /  -1.4 °C 30.02in /  1016.5hPa NNW 9.0mph /  14.5km/h 17.0mph /  27.4km/h 72% 0.00in /  0mm
20:54 35.5 °F /  1.9 °C 29.0 °F /  -1.7 °C 30.03in /  1016.8hPa NW 7.0mph /  11.3km/h 17.0mph /  27.4km/h 77% 0.00in /  0mm
20:59 34.1 °F /  1.2 °C 28.9 °F /  -1.7 °C 30.03in /  1016.8hPa NW 5.0mph /  8km/h 16.0mph /  25.7km/h 81% 0.00in /  0mm
21:04 33.3 °F /  0.7 °C 28.7 °F /  -1.8 °C 30.03in /  1016.8hPa WNW 5.0mph /  8km/h 10.0mph /  16.1km/h 83% 0.00in /  0mm
21:09 33.0 °F /  0.6 °C 29.0 °F /  -1.7 °C 30.03in /  1016.8hPa WNW 4.0mph /  6.4km/h 12.0mph /  19.3km/h 85% 0.00in /  0mm
21:14 32.8 °F /  0.4 °C 29.1 °F /  -1.6 °C 30.03in /  1016.8hPa WNW 3.0mph /  4.8km/h 12.0mph /  19.3km/h 86% 0.00in /  0mm
21:19 32.7 °F /  0.4 °C 29.0 °F /  -1.7 °C 30.03in /  1016.8hPa WNW 3.0mph /  4.8km/h 9.0mph /  14.5km/h 86% 0.00in /  0mm
21:24 32.6 °F /  0.3 °C 28.9 °F /  -1.7 °C 30.03in /  1016.8hPa NW 2.0mph /  3.2km/h 8.0mph /  12.9km/h 86% 0.00in /  0mm
21:29 32.6 °F /  0.3 °C 28.9 °F /  -1.7 °C 30.03in /  1016.8hPa WNW 4.0mph /  6.4km/h 9.0mph /  14.5km/h 86% 0.00in /  0mm
21:34 32.6 °F /  0.3 °C 28.9 °F /  -1.7 °C 30.03in /  1016.8hPa NW 4.0mph /  6.4km/h 11.0mph /  17.7km/h 86% 0.00in /  0mm
21:39 32.8 °F /  0.4 °C 29.1 °F /  -1.6 °C 30.03in /  1016.8hPa West 5.0mph /  8km/h 11.0mph /  17.7km/h 86% 0.00in /  0mm
21:45 32.9 °F /  0.5 °C 28.9 °F /  -1.7 °C 30.03in /  1016.8hPa WNW 3.0mph /  4.8km/h 9.0mph /  14.5km/h 85% 0.00in /  0mm
21:49 33.0 °F /  0.6 °C 29.0 °F /  -1.7 °C 30.03in /  1016.8hPa West 3.0mph /  4.8km/h 9.0mph /  14.5km/h 85% 0.00in /  0mm
21:54 33.0 °F /  0.6 °C 28.7 °F /  -1.8 °C 30.03in /  1016.8hPa NW 3.0mph /  4.8km/h 8.0mph /  12.9km/h 84% 0.00in /  0mm
21:59 33.0 °F /  0.6 °C 28.7 °F /  -1.8 °C 30.03in /  1016.8hPa WNW 3.0mph /  4.8km/h 8.0mph /  12.9km/h 84% 0.00in /  0mm
22:04 32.9 °F /  0.5 °C 28.6 °F /  -1.9 °C 30.03in /  1016.8hPa WNW 4.0mph /  6.4km/h 8.0mph /  12.9km/h 84% 0.00in /  0mm
22:09 32.9 °F /  0.5 °C 28.6 °F /  -1.9 °C 30.03in /  1016.8hPa WNW 3.0mph /  4.8km/h 7.0mph /  11.3km/h 84% 0.00in /  0mm
22:14 33.0 °F /  0.6 °C 28.7 °F /  -1.8 °C 30.03in /  1016.8hPa West 4.0mph /  6.4km/h 9.0mph /  14.5km/h 84% 0.00in /  0mm
22:19 33.0 °F /  0.6 °C 28.7 °F /  -1.8 °C 30.03in /  1016.8hPa WNW 1.0mph /  1.6km/h 9.0mph /  14.5km/h 84% 0.00in /  0mm
22:24 33.0 °F /  0.6 °C 28.4 °F /  -2 °C 30.03in /  1016.8hPa West 2.0mph /  3.2km/h 7.0mph /  11.3km/h 83% 0.00in /  0mm
22:30 33.0 °F /  0.6 °C 28.4 °F /  -2 °C 30.03in /  1016.8hPa West 3.0mph /  4.8km/h 7.0mph /  11.3km/h 83% 0.00in /  0mm
22:40 32.9 °F /  0.5 °C 28.3 °F /  -2.1 °C 30.03in /  1016.8hPa West 4.0mph /  6.4km/h 8.0mph /  12.9km/h 83% 0.00in /  0mm
22:49 33.3 °F /  0.7 °C 28.4 °F /  -2 °C 30.04in /  1017.2hPa West 5.0mph /  8km/h 8.0mph /  12.9km/h 82% 0.00in /  0mm
22:54 33.3 °F /  0.7 °C 28.4 °F /  -2 °C 30.04in /  1017.2hPa West 4.0mph /  6.4km/h 9.0mph /  14.5km/h 82% 0.00in /  0mm
22:59 33.4 °F /  0.8 °C 28.5 °F /  -1.9 °C 30.04in /  1017.2hPa SW 4.0mph /  6.4km/h 9.0mph /  14.5km/h 82% 0.00in /  0mm
23:04 33.4 °F /  0.8 °C 28.5 °F /  -1.9 °C 30.04in /  1017.2hPa West 3.0mph /  4.8km/h 7.0mph /  11.3km/h 82% 0.00in /  0mm
23:09 33.5 °F /  0.8 °C 28.3 °F /  -2.1 °C 30.04in /  1017.2hPa West 4.0mph /  6.4km/h 13.0mph /  20.9km/h 81% 0.00in /  0mm
23:14 33.5 °F /  0.8 °C 28.3 °F /  -2.1 °C 30.04in /  1017.2hPa WSW 5.0mph /  8km/h 13.0mph /  20.9km/h 81% 0.00in /  0mm
23:19 33.5 °F /  0.8 °C 28.3 °F /  -2.1 °C 30.04in /  1017.2hPa West 4.0mph /  6.4km/h 8.0mph /  12.9km/h 81% 0.00in /  0mm
23:24 33.5 °F /  0.8 °C 28.3 °F /  -2.1 °C 30.04in /  1017.2hPa West 5.0mph /  8km/h 9.0mph /  14.5km/h 81% 0.00in /  0mm
23:29 33.6 °F /  0.9 °C 28.4 °F /  -2 °C 30.04in /  1017.2hPa West 4.0mph /  6.4km/h 9.0mph /  14.5km/h 81% 0.00in /  0mm
23:34 33.7 °F /  0.9 °C 28.5 °F /  -1.9 °C 30.04in /  1017.2hPa WSW 5.0mph /  8km/h 10.0mph /  16.1km/h 81% 0.00in /  0mm
23:39 33.7 °F /  0.9 °C 28.5 °F /  -1.9 °C 30.04in /  1017.2hPa WSW 5.0mph /  8km/h 10.0mph /  16.1km/h 81% 0.00in /  0mm
23:44 33.6 °F /  0.9 °C 28.4 °F /  -2 °C 30.04in /  1017.2hPa WSW 4.0mph /  6.4km/h 8.0mph /  12.9km/h 81% 0.00in /  0mm
23:49 33.4 °F /  0.8 °C 28.5 °F /  -1.9 °C 30.04in /  1017.2hPa WSW 5.0mph /  8km/h 10.0mph /  16.1km/h 82% 0.00in /  0mm
23:54 33.4 °F /  0.8 °C 28.5 °F /  -1.9 °C 30.04in /  1017.2hPa WSW 6.0mph /  9.7km/h 13.0mph /  20.9km/h 82% 0.00in /  0mm
23:59 33.4 °F /  0.8 °C 28.5 °F /  -1.9 °C 30.05in /  1017.5hPa WSW 5.0mph /  8km/h 13.0mph /  20.9km/h 82% 0.00in /  0mm
Westford Weather
Compliments of Weather Underground

 
 
Current Radar Loop:

Copyright © WestfordWeather.net 2007-2014. All rights reserved.